Time;durP1;ratioP1;P1;durP2;ratioP2;P2;SDS_P1;SDS_P2;PMS_P1;PMS_P2;Temp;Humidity;BMP_temperature;BMP_pressure;BME280_temperature;BME280_humidity;BME280_pressure;Samples;Min_cycle;Max_cycle;Signal;HPM_P1;HPM_P2
2022/02/25 00:00:06;;;;;;;2.50;2.40;;;;;;;;;;2065559;28;20231;-60
2022/02/25 00:01:11;;;;;;;3.43;2.30;;;;;;;;;;2065045;28;20168;-59
2022/02/25 00:02:12;;;;;;;2.87;1.80;;;;;;;;;;2064368;28;20173;-60
2022/02/25 00:03:14;;;;;;;2.13;1.97;;;;;;;;;;2065046;28;20189;-60
2022/02/25 00:04:14;;;;;;;3.57;2.60;;;;;;;;;;2062894;28;20208;-61
2022/02/25 00:05:15;;;;;;;2.43;2.23;;;;;;;;;;2064239;28;20197;-53
2022/02/25 00:06:16;;;;;;;3.63;2.30;;;;;;;;;;2064027;28;20173;-58
2022/02/25 00:07:17;;;;;;;2.93;2.50;;;;;;;;;;2065137;28;20174;-58
2022/02/25 00:08:17;;;;;;;3.47;2.80;;;;;;;;;;2064448;28;20189;-55
2022/02/25 00:09:17;;;;;;;7.00;2.60;;;;;;;;;;2059415;28;20181;-59
2022/02/25 00:10:17;;;;;;;4.10;2.57;;;;;;;;;;2064179;28;20209;-59
2022/02/25 00:11:18;;;;;;;3.67;2.73;;;;;;;;;;2056187;28;20730;-59
2022/02/25 00:12:18;;;;;;;2.57;1.87;;;;;;;;;;2055960;28;20519;-60
2022/02/25 00:13:18;;;;;;;2.30;2.10;;;;;;;;;;2063637;28;20177;-58
2022/02/25 00:14:19;;;;;;;2.63;2.23;;;;;;;;;;2064709;28;20190;-57
2022/02/25 00:15:19;;;;;;;4.33;2.70;;;;;;;;;;2066405;28;20170;-59
2022/02/25 00:16:19;;;;;;;2.80;2.10;;;;;;;;;;2066517;28;20658;-60
2022/02/25 00:17:20;;;;;;;5.33;2.70;;;;;;;;;;2064915;28;20176;-61
2022/02/25 00:18:20;;;;;;;3.20;2.40;;;;;;;;;;2065035;28;20301;-60
2022/02/25 00:19:20;;;;;;;3.00;2.07;;;;;;;;;;2064739;28;20178;-59
2022/02/25 00:20:21;;;;;;;4.10;2.77;;;;;;;;;;2063492;28;20289;-60
2022/02/25 00:21:21;;;;;;;5.27;3.03;;;;;;;;;;2064978;28;20646;-57
2022/02/25 00:22:21;;;;;;;3.73;2.60;;;;;;;;;;2066983;28;20225;-56
2022/02/25 00:23:22;;;;;;;3.10;2.37;;;;;;;;;;2066004;28;20169;-56
2022/02/25 00:24:22;;;;;;;4.13;2.77;;;;;;;;;;2065449;28;20240;-54
2022/02/25 00:25:22;;;;;;;5.37;2.60;;;;;;;;;;2064404;28;20207;-59
2022/02/25 00:26:22;;;;;;;3.57;2.37;;;;;;;;;;2064606;28;20184;-60
2022/02/25 00:27:23;;;;;;;4.07;2.57;;;;;;;;;;2066572;28;20674;-57
2022/02/25 00:28:23;;;;;;;2.50;2.30;;;;;;;;;;2064402;28;20733;-54
2022/02/25 00:29:23;;;;;;;2.77;2.50;;;;;;;;;;2063966;28;20716;-58
2022/02/25 00:30:24;;;;;;;3.37;2.47;;;;;;;;;;2065369;28;20177;-60
2022/02/25 00:31:24;;;;;;;4.73;2.60;;;;;;;;;;2064729;28;20244;-59
2022/02/25 00:32:24;;;;;;;3.87;2.67;;;;;;;;;;2065408;28;20177;-58
2022/02/25 00:33:25;;;;;;;2.47;2.37;;;;;;;;;;2061849;28;20174;-60
2022/02/25 00:34:25;;;;;;;6.30;3.37;;;;;;;;;;2064320;28;20231;-60
2022/02/25 00:35:25;;;;;;;3.33;2.63;;;;;;;;;;2065014;28;20212;-58
2022/02/25 00:36:26;;;;;;;3.27;2.80;;;;;;;;;;2065866;28;20344;-57
2022/02/25 00:37:27;;;;;;;3.20;2.90;;;;;;;;;;2065179;28;20173;-60
2022/02/25 00:38:27;;;;;;;4.93;3.43;;;;;;;;;;2065712;28;20654;-60
2022/02/25 00:39:27;;;;;;;3.33;3.13;;;;;;;;;;2065280;28;20170;-59
2022/02/25 00:40:28;;;;;;;4.97;3.27;;;;;;;;;;2057034;28;20185;-59
2022/02/25 00:41:28;;;;;;;6.00;3.47;;;;;;;;;;2064944;28;20182;-59
2022/02/25 00:42:28;;;;;;;4.87;3.57;;;;;;;;;;2066032;28;20662;-56
2022/02/25 00:43:29;;;;;;;5.73;4.40;;;;;;;;;;2066012;28;20200;-56
2022/02/25 00:44:29;;;;;;;4.70;4.37;;;;;;;;;;2064969;28;20224;-60
2022/02/25 00:45:29;;;;;;;4.57;4.17;;;;;;;;;;2064960;28;20170;-59
2022/02/25 00:46:29;;;;;;;6.53;4.27;;;;;;;;;;2062871;28;20165;-59
2022/02/25 00:47:30;;;;;;;7.13;4.17;;;;;;;;;;2065054;28;20316;-60
2022/02/25 00:48:30;;;;;;;4.80;4.33;;;;;;;;;;2063604;28;20174;-58
2022/02/25 00:49:30;;;;;;;5.13;4.63;;;;;;;;;;2065719;28;20178;-59
2022/02/25 00:50:31;;;;;;;6.53;5.87;;;;;;;;;;2061483;28;20200;-59
2022/02/25 00:51:31;;;;;;;5.73;5.27;;;;;;;;;;2064651;28;20189;-60
2022/02/25 00:52:31;;;;;;;5.97;5.47;;;;;;;;;;2064719;28;20170;-60
2022/02/25 00:53:31;;;;;;;4.97;4.57;;;;;;;;;;2060500;28;20174;-57
2022/02/25 00:54:32;;;;;;;4.57;4.17;;;;;;;;;;2063993;28;20670;-62
2022/02/25 00:55:32;;;;;;;6.10;5.40;;;;;;;;;;2064811;28;20181;-56
2022/02/25 00:56:33;;;;;;;5.90;5.50;;;;;;;;;;2064409;28;20166;-59
2022/02/25 00:57:33;;;;;;;6.33;5.73;;;;;;;;;;2064191;28;20666;-58
2022/02/25 00:58:33;;;;;;;6.30;5.80;;;;;;;;;;2063819;28;20748;-58
2022/02/25 00:59:33;;;;;;;5.03;4.73;;;;;;;;;;2063488;28;20180;-60
2022/02/25 01:00:34;;;;;;;6.63;5.93;;;;;;;;;;2064446;28;20174;-58
2022/02/25 01:01:34;;;;;;;6.83;6.30;;;;;;;;;;2064291;28;20177;-60
2022/02/25 01:02:34;;;;;;;5.50;5.00;;;;;;;;;;2064392;28;20260;-61
2022/02/25 01:03:35;;;;;;;6.37;5.80;;;;;;;;;;2063598;28;20244;-58
2022/02/25 01:04:35;;;;;;;7.67;6.77;;;;;;;;;;2063534;28;20194;-62
2022/02/25 01:05:35;;;;;;;7.20;6.50;;;;;;;;;;2063117;28;20170;-57
2022/02/25 01:06:35;;;;;;;7.67;6.60;;;;;;;;;;2064585;28;20181;-59
2022/02/25 01:07:36;;;;;;;6.27;5.63;;;;;;;;;;2063565;28;20226;-54
2022/02/25 01:08:37;;;;;;;8.03;6.50;;;;;;;;;;2064027;28;20182;-59
2022/02/25 01:09:37;;;;;;;6.57;5.90;;;;;;;;;;2063800;28;20684;-58
2022/02/25 01:10:38;;;;;;;6.03;5.53;;;;;;;;;;2064474;28;20191;-57
2022/02/25 01:11:38;;;;;;;6.47;5.70;;;;;;;;;;2062954;28;20174;-58
2022/02/25 01:12:39;;;;;;;7.07;6.37;;;;;;;;;;2064900;28;20642;-58
2022/02/25 01:13:39;;;;;;;6.67;5.97;;;;;;;;;;2062031;28;20229;-59
2022/02/25 01:14:39;;;;;;;7.93;6.70;;;;;;;;;;2063674;28;20284;-58
2022/02/25 01:15:40;;;;;;;7.40;6.13;;;;;;;;;;2064379;28;20166;-60
2022/02/25 01:16:40;;;;;;;5.93;5.40;;;;;;;;;;2064248;28;20590;-60
2022/02/25 01:17:40;;;;;;;7.37;6.27;;;;;;;;;;2060485;28;20174;-57
2022/02/25 01:18:40;;;;;;;6.47;5.87;;;;;;;;;;2063326;28;20313;-59
2022/02/25 01:19:41;;;;;;;6.23;5.70;;;;;;;;;;2063256;28;20185;-56
2022/02/25 01:20:41;;;;;;;6.20;5.60;;;;;;;;;;2064646;28;20543;-56
2022/02/25 01:21:41;;;;;;;6.97;6.13;;;;;;;;;;2064089;28;20638;-60
2022/02/25 01:22:41;;;;;;;5.97;5.33;;;;;;;;;;2057853;28;20547;-58
2022/02/25 01:23:42;;;;;;;6.33;5.73;;;;;;;;;;2063317;28;20177;-59
2022/02/25 01:24:42;;;;;;;5.60;5.10;;;;;;;;;;2064465;28;20205;-57
2022/02/25 01:25:42;;;;;;;9.60;6.47;;;;;;;;;;2063852;28;20604;-59
2022/02/25 01:26:43;;;;;;;11.20;5.60;;;;;;;;;;2064040;28;20189;-59
2022/02/25 01:27:43;;;;;;;6.57;5.07;;;;;;;;;;2064730;28;20205;-58
2022/02/25 01:28:44;;;;;;;4.47;4.07;;;;;;;;;;2061917;28;20188;-55
2022/02/25 01:29:45;;;;;;;6.40;5.57;;;;;;;;;;2058045;28;20210;-58
2022/02/25 01:30:45;;;;;;;9.27;6.70;;;;;;;;;;2063865;28;20190;-62
2022/02/25 01:31:46;;;;;;;5.83;5.23;;;;;;;;;;2063853;28;20182;-61
2022/02/25 01:32:46;;;;;;;6.50;5.63;;;;;;;;;;2064321;28;20174;-58
2022/02/25 01:33:46;;;;;;;7.60;5.43;;;;;;;;;;2062466;28;20296;-60
2022/02/25 01:34:47;;;;;;;7.30;5.90;;;;;;;;;;2063820;28;20213;-60
2022/02/25 01:35:47;;;;;;;6.53;5.93;;;;;;;;;;2063667;28;20193;-57
2022/02/25 01:36:47;;;;;;;8.03;6.10;;;;;;;;;;2065978;28;20265;-60
2022/02/25 01:37:47;;;;;;;6.80;6.20;;;;;;;;;;2065594;28;20610;-57
2022/02/25 01:38:48;;;;;;;8.50;6.30;;;;;;;;;;2065612;28;20185;-60
2022/02/25 01:39:48;;;;;;;6.13;5.63;;;;;;;;;;2063385;28;20662;-60
2022/02/25 01:40:50;;;;;;;8.60;5.57;;;;;;;;;;2066313;28;20158;-58
2022/02/25 01:41:50;;;;;;;7.97;4.87;;;;;;;;;;2065804;28;20170;-58
2022/02/25 01:42:51;;;;;;;6.57;5.93;;;;;;;;;;2063269;28;20718;-56
2022/02/25 01:44:08;;;;;;;7.90;5.63;;;;;;;;;;2065365;28;20558;-56
2022/02/25 01:45:09;;;;;;;6.10;5.43;;;;;;;;;;2060509;28;20213;-59
2022/02/25 01:46:09;;;;;;;7.90;6.50;;;;;;;;;;2065281;28;20525;-59
2022/02/25 01:47:11;;;;;;;8.97;5.83;;;;;;;;;;2062563;28;20209;-60
2022/02/25 01:48:13;;;;;;;6.83;5.97;;;;;;;;;;2064663;28;20820;-58
2022/02/25 01:49:13;;;;;;;7.57;6.17;;;;;;;;;;2062655;28;20494;-55
2022/02/25 01:50:14;;;;;;;7.77;5.97;;;;;;;;;;2063865;28;20182;-58
2022/02/25 01:51:14;;;;;;;6.53;5.83;;;;;;;;;;2061822;28;20187;-58
2022/02/25 01:52:17;;;;;;;7.40;5.30;;;;;;;;;;2060668;28;20169;-57
2022/02/25 01:53:20;;;;;;;8.67;6.60;;;;;;;;;;2063037;28;20879;-59
2022/02/25 01:54:20;;;;;;;6.70;5.67;;;;;;;;;;2063817;28;20463;-58
2022/02/25 01:55:20;;;;;;;6.67;5.77;;;;;;;;;;2064912;28;20586;-60
2022/02/25 01:56:20;;;;;;;7.87;6.30;;;;;;;;;;2064816;28;20277;-59
2022/02/25 01:57:21;;;;;;;5.73;4.63;;;;;;;;;;2064731;28;20170;-59
2022/02/25 01:58:24;;;;;;;6.73;6.00;;;;;;;;;;2061602;28;20702;-57
2022/02/25 01:59:25;;;;;;;5.73;5.17;;;;;;;;;;2063709;28;20253;-54
2022/02/25 02:00:25;;;;;;;8.53;5.70;;;;;;;;;;2060746;28;20178;-60
2022/02/25 02:01:26;;;;;;;6.87;5.70;;;;;;;;;;2064020;28;20817;-59
2022/02/25 02:02:27;;;;;;;9.27;5.53;;;;;;;;;;2059972;28;20173;-58
2022/02/25 02:03:27;;;;;;;5.97;5.40;;;;;;;;;;2063781;28;20182;-57
2022/02/25 02:04:27;;;;;;;5.73;5.17;;;;;;;;;;2065513;28;20272;-60
2022/02/25 02:05:28;;;;;;;6.07;5.17;;;;;;;;;;2061875;28;20192;-60
2022/02/25 02:06:28;;;;;;;8.90;5.77;;;;;;;;;;2057384;28;20174;-58
2022/02/25 02:07:28;;;;;;;6.33;5.13;;;;;;;;;;2064263;28;20539;-60
2022/02/25 02:08:28;;;;;;;7.73;5.77;;;;;;;;;;2065962;28;20215;-59
2022/02/25 02:09:29;;;;;;;6.80;5.70;;;;;;;;;;2060871;28;20886;-60
2022/02/25 02:10:29;;;;;;;6.67;5.80;;;;;;;;;;2062811;28;20169;-60
2022/02/25 02:11:32;;;;;;;7.80;5.70;;;;;;;;;;2066037;28;20170;-59
2022/02/25 02:12:32;;;;;;;7.17;5.50;;;;;;;;;;2059472;28;20167;-60
2022/02/25 02:13:32;;;;;;;6.73;5.70;;;;;;;;;;2064583;28;20193;-57
2022/02/25 02:14:32;;;;;;;6.20;5.60;;;;;;;;;;2056434;28;20205;-60
2022/02/25 02:15:33;;;;;;;6.83;5.83;;;;;;;;;;2056753;28;20642;-63
2022/02/25 02:16:34;;;;;;;6.97;5.60;;;;;;;;;;2064142;28;20284;-58
2022/02/25 02:17:34;;;;;;;9.87;6.70;;;;;;;;;;2064185;28;20244;-60
2022/02/25 02:18:34;;;;;;;5.83;5.33;;;;;;;;;;2064013;28;20681;-59
2022/02/25 02:19:35;;;;;;;5.67;5.17;;;;;;;;;;2057978;28;20198;-58
2022/02/25 02:20:35;;;;;;;5.57;4.87;;;;;;;;;;2057160;28;20174;-59
2022/02/25 02:21:39;;;;;;;8.83;4.90;;;;;;;;;;2057604;28;20730;-57
2022/02/25 02:22:39;;;;;;;7.53;6.43;;;;;;;;;;2064489;28;20699;-58
2022/02/25 02:23:39;;;;;;;8.90;5.40;;;;;;;;;;2063694;28;20202;-57
2022/02/25 02:24:40;;;;;;;10.90;5.33;;;;;;;;;;2064612;28;20217;-57
2022/02/25 02:25:40;;;;;;;7.97;4.90;;;;;;;;;;2064971;28;20257;-58
2022/02/25 02:26:42;;;;;;;5.93;5.33;;;;;;;;;;2064678;28;20181;-59
2022/02/25 02:29:01;;;;;;;6.77;4.97;;;;;;;;;;2060784;28;20178;-59
2022/02/25 02:30:01;;;;;;;6.73;5.23;;;;;;;;;;2065200;28;20198;-57
2022/02/25 02:31:02;;;;;;;6.73;5.07;;;;;;;;;;2064770;28;20178;-59
2022/02/25 02:32:02;;;;;;;5.50;4.90;;;;;;;;;;2064468;28;20218;-59
2022/02/25 02:33:02;;;;;;;6.00;4.50;;;;;;;;;;2064114;28;20177;-54
2022/02/25 02:34:03;;;;;;;9.17;6.00;;;;;;;;;;2063688;28;20615;-60
2022/02/25 02:35:04;;;;;;;10.00;4.93;;;;;;;;;;2061435;28;20170;-60
2022/02/25 02:36:04;;;;;;;7.70;4.90;;;;;;;;;;2064687;28;20682;-60
2022/02/25 02:37:10;;;;;;;9.10;5.07;;;;;;;;;;2065341;28;20192;-60
2022/02/25 02:38:10;;;;;;;7.33;5.00;;;;;;;;;;2064679;28;20197;-60
2022/02/25 02:39:11;;;;;;;8.77;4.50;;;;;;;;;;2065519;28;20170;-59
2022/02/25 02:40:11;;;;;;;7.23;4.80;;;;;;;;;;2062444;28;20217;-61
2022/02/25 02:41:12;;;;;;;5.60;5.10;;;;;;;;;;2064561;28;20674;-60
2022/02/25 02:42:12;;;;;;;7.53;5.30;;;;;;;;;;2065079;28;20181;-60
2022/02/25 02:43:13;;;;;;;5.47;4.97;;;;;;;;;;2060933;28;20202;-61
2022/02/25 02:44:13;;;;;;;10.23;5.33;;;;;;;;;;2064702;28;20173;-60
2022/02/25 02:45:15;;;;;;;10.40;5.20;;;;;;;;;;2065218;28;20204;-59
2022/02/25 02:46:15;;;;;;;8.73;5.43;;;;;;;;;;2065028;28;20182;-60
2022/02/25 02:47:15;;;;;;;8.03;4.90;;;;;;;;;;2064753;28;20177;-60
2022/02/25 02:48:16;;;;;;;7.33;5.47;;;;;;;;;;2064292;28;20590;-59
2022/02/25 02:49:16;;;;;;;7.03;5.00;;;;;;;;;;2062893;28;20264;-59
2022/02/25 02:50:16;;;;;;;9.50;5.00;;;;;;;;;;2056076;28;20257;-57
2022/02/25 02:51:17;;;;;;;10.70;5.37;;;;;;;;;;2056261;28;20272;-57
2022/02/25 02:52:17;;;;;;;6.73;4.93;;;;;;;;;;2060088;28;20178;-57
2022/02/25 02:53:17;;;;;;;7.73;4.83;;;;;;;;;;2063705;28;20185;-56
2022/02/25 02:54:18;;;;;;;6.50;4.87;;;;;;;;;;2063569;28;20225;-54
2022/02/25 02:55:18;;;;;;;7.80;4.57;;;;;;;;;;2060181;28;20189;-57
2022/02/25 02:56:18;;;;;;;9.50;5.03;;;;;;;;;;2062005;28;20194;-57
2022/02/25 02:57:20;;;;;;;4.60;3.77;;;;;;;;;;2063860;28;20252;-54
2022/02/25 02:58:20;;;;;;;5.97;4.73;;;;;;;;;;2064462;28;20196;-55
2022/02/25 02:59:21;;;;;;;4.40;3.63;;;;;;;;;;2061640;28;20198;-59
2022/02/25 03:00:21;;;;;;;6.30;4.23;;;;;;;;;;2063912;28;20196;-55
2022/02/25 03:01:23;;;;;;;9.43;4.77;;;;;;;;;;2064222;28;20165;-56
2022/02/25 03:02:24;;;;;;;5.60;4.97;;;;;;;;;;2062904;28;20165;-58
2022/02/25 03:03:25;;;;;;;5.20;4.47;;;;;;;;;;2062356;28;20221;-57
2022/02/25 03:04:25;;;;;;;6.50;5.27;;;;;;;;;;2064042;28;20193;-57
2022/02/25 03:05:26;;;;;;;10.97;4.50;;;;;;;;;;2064418;28;20181;-58
2022/02/25 03:06:27;;;;;;;7.70;4.30;;;;;;;;;;2064374;28;20180;-57
2022/02/25 03:07:27;;;;;;;7.13;4.60;;;;;;;;;;2058683;28;20214;-56
2022/02/25 03:08:27;;;;;;;6.30;4.50;;;;;;;;;;2063257;28;20186;-58
2022/02/25 03:09:28;;;;;;;6.30;4.23;;;;;;;;;;2064152;28;20272;-56
2022/02/25 03:10:28;;;;;;;5.13;3.90;;;;;;;;;;2064719;28;20185;-59
2022/02/25 03:11:28;;;;;;;13.33;5.30;;;;;;;;;;2057526;28;20177;-57
2022/02/25 03:12:28;;;;;;;4.90;4.40;;;;;;;;;;2060205;28;20181;-57
2022/02/25 03:13:29;;;;;;;8.47;4.23;;;;;;;;;;2063894;28;20173;-58
2022/02/25 03:14:29;;;;;;;8.70;4.00;;;;;;;;;;2059977;28;20525;-57
2022/02/25 03:15:29;;;;;;;6.83;4.63;;;;;;;;;;2063850;28;20182;-57
2022/02/25 03:16:29;;;;;;;8.60;3.97;;;;;;;;;;2064702;28;20165;-57
2022/02/25 03:17:32;;;;;;;7.37;4.10;;;;;;;;;;2065262;28;20268;-56
2022/02/25 03:18:32;;;;;;;7.27;4.40;;;;;;;;;;2064538;28;20166;-55
2022/02/25 03:19:35;;;;;;;4.33;3.70;;;;;;;;;;2064824;28;20227;-60
2022/02/25 03:20:35;;;;;;;5.90;4.40;;;;;;;;;;2065194;28;20178;-58
2022/02/25 03:21:35;;;;;;;8.00;4.30;;;;;;;;;;2065476;28;20646;-56
2022/02/25 03:22:36;;;;;;;5.00;4.17;;;;;;;;;;2065350;28;20257;-56
2022/02/25 03:23:36;;;;;;;14.17;4.53;;;;;;;;;;2065279;28;20184;-58
2022/02/25 03:24:37;;;;;;;8.47;4.43;;;;;;;;;;2064639;28;20235;-57
2022/02/25 03:25:37;;;;;;;5.07;3.93;;;;;;;;;;2065132;28;20685;-59
2022/02/25 03:26:37;;;;;;;5.83;3.83;;;;;;;;;;2065345;28;20166;-56
2022/02/25 03:27:37;;;;;;;5.73;4.03;;;;;;;;;;2065407;28;20196;-60
2022/02/25 03:28:38;;;;;;;6.53;4.40;;;;;;;;;;2065345;28;20638;-57
2022/02/25 03:29:38;;;;;;;5.37;4.50;;;;;;;;;;2065316;28;20204;-60
2022/02/25 03:30:38;;;;;;;7.57;4.90;;;;;;;;;;2065242;28;20180;-58
2022/02/25 03:31:39;;;;;;;8.03;4.47;;;;;;;;;;2065321;28;20173;-59
2022/02/25 03:32:42;;;;;;;5.70;4.17;;;;;;;;;;2065235;28;20189;-57
2022/02/25 03:33:42;;;;;;;5.70;4.50;;;;;;;;;;2065049;28;20173;-61
2022/02/25 03:34:42;;;;;;;6.50;4.90;;;;;;;;;;2064438;28;20292;-59
2022/02/25 03:35:43;;;;;;;8.97;4.80;;;;;;;;;;2065156;28;20182;-56
2022/02/25 03:36:43;;;;;;;6.50;5.90;;;;;;;;;;2059785;28;20590;-60
2022/02/25 03:37:44;;;;;;;5.63;5.13;;;;;;;;;;2064498;28;20677;-57
2022/02/25 03:38:44;;;;;;;6.30;4.80;;;;;;;;;;2063540;28;20233;-59
2022/02/25 03:39:44;;;;;;;4.77;4.23;;;;;;;;;;2063340;28;20183;-58
2022/02/25 03:40:44;;;;;;;15.43;5.50;;;;;;;;;;2063566;28;20173;-60
2022/02/25 03:41:45;;;;;;;11.40;5.57;;;;;;;;;;2064326;28;20640;-55
2022/02/25 03:42:45;;;;;;;12.17;5.17;;;;;;;;;;2063997;28;20248;-56
2022/02/25 03:43:45;;;;;;;9.63;6.00;;;;;;;;;;2063233;28;20165;-60
2022/02/25 03:44:46;;;;;;;11.10;5.30;;;;;;;;;;2055184;28;20202;-57
2022/02/25 03:45:46;;;;;;;7.50;4.97;;;;;;;;;;2063525;28;20184;-59
2022/02/25 03:46:47;;;;;;;6.17;4.27;;;;;;;;;;2064251;28;20189;-60
2022/02/25 03:47:48;;;;;;;6.27;4.83;;;;;;;;;;2064488;28;20216;-54
2022/02/25 03:48:50;;;;;;;8.80;5.27;;;;;;;;;;2064475;28;20528;-55
2022/02/25 03:49:50;;;;;;;8.57;4.83;;;;;;;;;;2064475;28;20188;-57
2022/02/25 03:50:50;;;;;;;7.77;5.63;;;;;;;;;;2064308;28;20177;-57
2022/02/25 03:51:50;;;;;;;6.00;5.07;;;;;;;;;;2065079;28;20288;-58
2022/02/25 03:52:51;;;;;;;9.00;5.57;;;;;;;;;;2064758;28;20224;-56
2022/02/25 03:53:51;;;;;;;9.17;5.57;;;;;;;;;;2064273;28;20205;-57
2022/02/25 03:54:51;;;;;;;9.77;5.20;;;;;;;;;;2064026;28;20714;-57
2022/02/25 03:55:51;;;;;;;9.17;5.53;;;;;;;;;;2065164;28;20166;-59
2022/02/25 03:56:52;;;;;;;8.20;5.37;;;;;;;;;;2065210;28;20205;-57
2022/02/25 03:57:52;;;;;;;9.30;5.30;;;;;;;;;;2064276;28;20182;-59
2022/02/25 03:58:52;;;;;;;9.13;5.43;;;;;;;;;;2064310;28;20181;-55
2022/02/25 03:59:53;;;;;;;8.93;5.10;;;;;;;;;;2065049;28;20213;-60
2022/02/25 04:00:53;;;;;;;9.40;5.40;;;;;;;;;;2065220;28;20203;-59
2022/02/25 04:01:53;;;;;;;6.93;5.23;;;;;;;;;;2064983;28;20177;-58
2022/02/25 04:02:54;;;;;;;7.43;5.50;;;;;;;;;;2065185;28;20168;-57
2022/02/25 04:03:54;;;;;;;6.27;5.03;;;;;;;;;;2064072;28;20575;-56
2022/02/25 04:04:55;;;;;;;6.73;5.10;;;;;;;;;;2055917;28;20233;-59
2022/02/25 04:05:55;;;;;;;8.73;5.50;;;;;;;;;;2056372;28;20174;-60
2022/02/25 04:06:55;;;;;;;11.27;5.30;;;;;;;;;;2064082;28;20302;-60
2022/02/25 04:07:56;;;;;;;7.83;5.30;;;;;;;;;;2064506;28;20168;-55
2022/02/25 04:08:56;;;;;;;6.47;5.33;;;;;;;;;;2064835;28;20268;-59
2022/02/25 04:09:56;;;;;;;7.07;4.90;;;;;;;;;;2065045;28;20220;-58
2022/02/25 04:10:56;;;;;;;5.97;5.07;;;;;;;;;;2065000;28;20178;-61
2022/02/25 04:11:57;;;;;;;8.20;5.43;;;;;;;;;;2064345;28;20616;-57
2022/02/25 04:12:57;;;;;;;9.70;5.50;;;;;;;;;;2064230;28;20579;-58
2022/02/25 04:13:57;;;;;;;6.73;4.77;;;;;;;;;;2064396;28;20292;-58
2022/02/25 04:14:57;;;;;;;7.13;5.27;;;;;;;;;;2064727;28;20228;-55
2022/02/25 04:15:58;;;;;;;7.07;5.00;;;;;;;;;;2064155;28;20193;-56
2022/02/25 04:16:58;;;;;;;9.60;5.20;;;;;;;;;;2064032;28;20595;-59
2022/02/25 04:17:58;;;;;;;10.40;5.37;;;;;;;;;;2064979;28;20197;-58
2022/02/25 04:18:58;;;;;;;5.80;5.20;;;;;;;;;;2064544;28;20170;-58
2022/02/25 04:19:59;;;;;;;9.00;5.23;;;;;;;;;;2064967;28;20217;-59
2022/02/25 04:20:59;;;;;;;6.17;5.40;;;;;;;;;;2064884;28;20185;-59
2022/02/25 04:22:00;;;;;;;10.63;4.90;;;;;;;;;;2065059;28;20538;-58
2022/02/25 04:23:00;;;;;;;7.53;5.10;;;;;;;;;;2064822;28;20173;-59
2022/02/25 04:24:00;;;;;;;10.80;5.23;;;;;;;;;;2064308;28;20606;-55
2022/02/25 04:25:00;;;;;;;11.13;5.23;;;;;;;;;;2064664;28;20209;-58
2022/02/25 04:26:01;;;;;;;6.17;5.00;;;;;;;;;;2064914;28;20197;-59
2022/02/25 04:27:01;;;;;;;8.07;4.77;;;;;;;;;;2064973;28;20618;-59
2022/02/25 04:28:02;;;;;;;5.60;4.70;;;;;;;;;;2065315;28;20543;-59
2022/02/25 04:29:03;;;;;;;8.17;5.60;;;;;;;;;;2063329;28;20173;-59
2022/02/25 04:30:03;;;;;;;9.23;6.37;;;;;;;;;;2064504;28;20709;-60
2022/02/25 04:31:04;;;;;;;8.03;5.17;;;;;;;;;;2062155;28;20717;-61
2022/02/25 04:32:04;;;;;;;8.17;5.10;;;;;;;;;;2065059;28;20173;-60
2022/02/25 04:33:05;;;;;;;7.07;5.57;;;;;;;;;;2063532;28;20166;-59
2022/02/25 04:34:05;;;;;;;8.63;5.33;;;;;;;;;;2063228;28;20193;-61
2022/02/25 04:35:06;;;;;;;9.20;4.87;;;;;;;;;;2061238;28;20606;-57
2022/02/25 04:36:06;;;;;;;6.93;4.77;;;;;;;;;;2060076;28;20181;-59
2022/02/25 04:37:07;;;;;;;6.63;4.83;;;;;;;;;;2063924;28;20255;-59
2022/02/25 04:38:07;;;;;;;6.50;4.50;;;;;;;;;;2063588;28;20180;-59
2022/02/25 04:39:07;;;;;;;9.00;4.67;;;;;;;;;;2055563;28;20178;-58
2022/02/25 04:40:08;;;;;;;9.60;5.30;;;;;;;;;;2064477;28;20170;-59
2022/02/25 04:41:08;;;;;;;8.10;5.27;;;;;;;;;;2064113;28;20661;-58
2022/02/25 04:42:09;;;;;;;10.13;5.50;;;;;;;;;;2064104;28;20228;-57
2022/02/25 04:43:09;;;;;;;9.60;5.50;;;;;;;;;;2061015;28;20201;-56
2022/02/25 04:44:09;;;;;;;5.30;4.73;;;;;;;;;;2064467;28;20196;-56
2022/02/25 04:45:10;;;;;;;5.30;4.67;;;;;;;;;;2064115;28;20713;-58
2022/02/25 04:46:17;;;;;;;8.07;5.03;;;;;;;;;;2064423;28;20170;-58
2022/02/25 04:47:17;;;;;;;9.57;4.83;;;;;;;;;;2063823;28;20189;-57
2022/02/25 04:48:17;;;;;;;9.13;4.83;;;;;;;;;;2064605;28;20176;-59
2022/02/25 04:49:18;;;;;;;7.40;4.27;;;;;;;;;;2064070;28;20192;-60
2022/02/25 04:50:18;;;;;;;6.37;4.90;;;;;;;;;;2064121;28;20174;-60
2022/02/25 04:51:18;;;;;;;9.63;4.83;;;;;;;;;;2063317;28;20178;-58
2022/02/25 04:52:19;;;;;;;7.00;4.73;;;;;;;;;;2064735;28;20182;-52
2022/02/25 04:53:19;;;;;;;6.77;4.43;;;;;;;;;;2063900;28;20177;-58
2022/02/25 04:54:20;;;;;;;8.70;5.03;;;;;;;;;;2063178;28;20211;-59
2022/02/25 04:55:20;;;;;;;6.73;4.60;;;;;;;;;;2062527;28;20252;-60
2022/02/25 04:56:23;;;;;;;8.37;4.87;;;;;;;;;;2063259;28;20178;-59
2022/02/25 04:57:23;;;;;;;8.27;4.90;;;;;;;;;;2062593;28;20176;-58
2022/02/25 04:58:23;;;;;;;5.17;4.40;;;;;;;;;;2063239;28;20170;-53
2022/02/25 04:59:24;;;;;;;5.47;4.40;;;;;;;;;;2064621;28;20221;-57
2022/02/25 05:00:24;;;;;;;7.23;4.97;;;;;;;;;;2061786;28;20170;-55
2022/02/25 05:01:24;;;;;;;6.00;4.70;;;;;;;;;;2063152;28;20192;-58
2022/02/25 05:02:24;;;;;;;7.17;4.83;;;;;;;;;;2062912;28;20170;-57
2022/02/25 05:03:25;;;;;;;8.83;5.63;;;;;;;;;;2063993;28;20567;-59
2022/02/25 05:04:25;;;;;;;14.00;5.07;;;;;;;;;;2062759;28;20686;-56
2022/02/25 05:05:25;;;;;;;6.87;5.33;;;;;;;;;;2064584;28;20182;-58
2022/02/25 05:06:26;;;;;;;13.57;5.13;;;;;;;;;;2063272;28;20196;-58
2022/02/25 05:07:26;;;;;;;5.87;4.40;;;;;;;;;;2062860;28;20201;-59
2022/02/25 05:08:27;;;;;;;9.80;4.67;;;;;;;;;;2063586;28;20181;-59
2022/02/25 05:09:27;;;;;;;11.53;4.77;;;;;;;;;;2064609;28;20188;-59
2022/02/25 05:10:28;;;;;;;12.83;5.20;;;;;;;;;;2063802;28;20309;-59
2022/02/25 05:11:28;;;;;;;8.70;5.00;;;;;;;;;;2065664;28;20272;-56
2022/02/25 05:12:29;;;;;;;10.77;5.10;;;;;;;;;;2065347;28;20189;-57
2022/02/25 05:13:29;;;;;;;8.77;5.20;;;;;;;;;;2065880;28;20232;-58
2022/02/25 05:21:03;;;;;;;4.80;4.13;;;;;;;;;;2061686;28;20698;-59
2022/02/25 05:22:03;;;;;;;7.03;4.63;;;;;;;;;;2061390;28;20182;-59
2022/02/25 05:23:04;;;;;;;7.20;4.97;;;;;;;;;;2061224;28;20169;-60
2022/02/25 05:24:04;;;;;;;8.10;4.17;;;;;;;;;;2064374;28;20292;-59
2022/02/25 05:25:05;;;;;;;9.10;5.07;;;;;;;;;;2065998;28;20544;-58
2022/02/25 05:26:05;;;;;;;11.60;4.70;;;;;;;;;;2065068;28;20181;-59
2022/02/25 05:27:05;;;;;;;9.23;5.10;;;;;;;;;;2065590;28;20178;-58
2022/02/25 05:28:06;;;;;;;6.67;4.70;;;;;;;;;;2062976;28;20166;-59
2022/02/25 05:29:06;;;;;;;9.67;5.10;;;;;;;;;;2064676;28;20397;-57
2022/02/25 05:30:08;;;;;;;7.90;4.70;;;;;;;;;;2064865;28;20185;-59
2022/02/25 05:31:09;;;;;;;8.93;4.23;;;;;;;;;;2065544;28;20186;-56
2022/02/25 05:32:09;;;;;;;9.43;5.03;;;;;;;;;;2060378;28;20185;-59
2022/02/25 05:33:09;;;;;;;8.27;5.03;;;;;;;;;;2062459;28;20661;-57
2022/02/25 05:34:09;;;;;;;7.70;4.63;;;;;;;;;;2062971;28;20212;-58
2022/02/25 05:35:10;;;;;;;6.27;3.93;;;;;;;;;;2089734;23;20241;-56
2022/02/25 05:36:10;;;;;;;6.73;4.27;;;;;;;;;;2072275;28;20615;-56
2022/02/25 05:37:11;;;;;;;6.10;3.67;;;;;;;;;;2070819;28;20212;-57
2022/02/25 05:38:11;;;;;;;7.83;3.77;;;;;;;;;;2075775;28;20204;-58
2022/02/25 05:39:11;;;;;;;12.70;4.70;;;;;;;;;;2071170;28;20229;-59
2022/02/25 05:40:13;;;;;;;5.77;4.37;;;;;;;;;;2076058;28;20212;-59
2022/02/25 05:41:13;;;;;;;6.87;4.00;;;;;;;;;;2071227;28;20544;-59
2022/02/25 05:42:13;;;;;;;9.83;5.33;;;;;;;;;;2068643;28;20169;-57
2022/02/25 05:43:14;;;;;;;12.37;4.50;;;;;;;;;;2068330;28;20174;-58
2022/02/25 05:44:14;;;;;;;6.33;3.70;;;;;;;;;;2072610;28;20203;-58
2022/02/25 05:45:16;;;;;;;8.80;3.50;;;;;;;;;;2076198;28;20652;-56
2022/02/25 05:46:16;;;;;;;9.17;5.17;;;;;;;;;;2074023;28;20189;-56
2022/02/25 05:47:17;;;;;;;7.13;4.37;;;;;;;;;;2071175;28;20447;-55
2022/02/25 05:48:18;;;;;;;10.10;4.40;;;;;;;;;;2071722;28;20184;-54
2022/02/25 05:49:18;;;;;;;5.30;4.00;;;;;;;;;;2069533;28;20491;-60
2022/02/25 05:50:19;;;;;;;7.23;4.40;;;;;;;;;;2068878;28;20321;-56
2022/02/25 05:51:19;;;;;;;9.13;4.60;;;;;;;;;;2074642;28;20184;-57
2022/02/25 05:52:20;;;;;;;7.00;4.63;;;;;;;;;;2074328;28;20180;-56
2022/02/25 05:53:20;;;;;;;10.30;4.40;;;;;;;;;;2073207;28;20170;-56
2022/02/25 05:54:20;;;;;;;7.20;3.97;;;;;;;;;;2073801;28;20267;-58
2022/02/25 05:55:21;;;;;;;8.13;3.70;;;;;;;;;;2073093;28;20578;-57
2022/02/25 05:56:21;;;;;;;7.53;4.50;;;;;;;;;;2068968;28;20221;-57
2022/02/25 05:57:22;;;;;;;6.67;3.87;;;;;;;;;;2074490;28;20570;-56
2022/02/25 05:58:22;;;;;;;7.23;4.47;;;;;;;;;;2070787;28;20593;-58
2022/02/25 05:59:22;;;;;;;8.00;4.07;;;;;;;;;;2068221;28;20260;-54
2022/02/25 06:00:23;;;;;;;8.53;4.37;;;;;;;;;;2069815;28;20810;-57
2022/02/25 06:01:23;;;;;;;7.87;4.40;;;;;;;;;;2067337;28;20177;-57
2022/02/25 06:02:24;;;;;;;8.83;4.63;;;;;;;;;;2066501;28;20178;-59
2022/02/25 06:03:24;;;;;;;10.67;4.73;;;;;;;;;;2074878;28;20187;-57
2022/02/25 06:04:24;;;;;;;7.20;4.30;;;;;;;;;;2075227;28;20215;-58
2022/02/25 06:05:24;;;;;;;6.43;3.57;;;;;;;;;;2070021;28;20204;-59
2022/02/25 06:06:25;;;;;;;8.77;4.37;;;;;;;;;;2077300;28;20206;-59
2022/02/25 06:07:25;;;;;;;20.37;3.97;;;;;;;;;;2069294;28;20178;-57
2022/02/25 06:08:26;;;;;;;7.53;3.57;;;;;;;;;;2069209;28;20174;-60
2022/02/25 06:09:27;;;;;;;7.70;3.90;;;;;;;;;;2068786;28;20600;-60